createdAt,value
2018-08-17T00:00:27.370Z,75.46
2018-08-17T00:01:07.916Z,75.65
2018-08-17T00:01:48.375Z,75.17
2018-08-17T00:02:28.923Z,75.17
2018-08-17T00:03:09.417Z,75.46
2018-08-17T00:03:49.975Z,74.98
2018-08-17T00:04:30.504Z,74.88
2018-08-17T00:05:11.068Z,75.07
2018-08-17T00:05:51.506Z,74.98
2018-08-17T00:06:32.002Z,74.98
2018-08-17T00:07:12.534Z,75.17
2018-08-17T00:07:53.051Z,75.17
2018-08-17T00:08:33.578Z,75.27
2018-08-17T00:09:14.082Z,75.27
2018-08-17T00:09:54.580Z,75.27
2018-08-17T00:10:35.108Z,75.65
2018-08-17T00:11:15.605Z,75.37
2018-08-17T00:11:56.120Z,74.98
2018-08-17T00:12:36.629Z,75.27
2018-08-17T00:13:17.156Z,74.69
2018-08-17T00:13:57.691Z,74.98
2018-08-17T00:14:38.219Z,74.98
2018-08-17T00:15:18.732Z,75.07
2018-08-17T00:15:59.243Z,74.88
2018-08-17T00:16:39.960Z,74.79
2018-08-17T00:17:20.441Z,74.88
2018-08-17T00:18:00.951Z,74.98
2018-08-17T00:18:41.446Z,75.17
2018-08-17T00:19:21.971Z,74.98
2018-08-17T00:20:02.524Z,74.69
2018-08-17T00:20:43.074Z,74.98
2018-08-17T00:21:23.588Z,74.98
2018-08-17T00:22:04.107Z,75.27
2018-08-17T00:22:44.632Z,75.27
2018-08-17T00:23:25.144Z,75.33
2018-08-17T00:24:05.657Z,75.46
2018-08-17T00:26:24.078Z,76.01
2018-08-17T00:27:04.611Z,76.29
2018-08-17T00:27:45.129Z,75.71
2018-08-17T00:28:25.644Z,75.33
2018-08-17T00:29:06.177Z,75.56
2018-08-17T00:29:46.685Z,75.13
2018-08-17T00:30:27.201Z,74.85
2018-08-17T00:31:07.743Z,75.43
2018-08-17T00:31:48.253Z,75.13
2018-08-17T00:32:28.758Z,75.33
2018-08-17T00:33:09.490Z,75.23
2018-08-17T00:33:50.005Z,75.33
2018-08-17T00:34:30.631Z,75.13
2018-08-17T00:35:11.289Z,74.65
2018-08-17T00:35:51.587Z,74.98
2018-08-17T00:36:32.116Z,74.94
2018-08-17T00:37:12.635Z,74.94
2018-08-17T00:37:53.145Z,75.17
2018-08-17T00:38:33.686Z,74.98
2018-08-17T00:39:14.123Z,74.98
2018-08-17T00:39:54.626Z,74.94
2018-08-17T00:40:35.129Z,75.13
2018-08-17T00:41:15.635Z,75.07
2018-08-17T00:41:56.146Z,75.04
2018-08-17T00:42:36.666Z,74.46
2018-08-17T00:43:17.148Z,74.17
2018-08-17T00:43:57.661Z,74.94
2018-08-17T00:44:38.173Z,74.65
2018-08-17T00:45:18.685Z,75.13
2018-08-17T00:45:59.208Z,74.27
2018-08-17T00:46:39.705Z,74.85
2018-08-17T00:47:20.190Z,74.94
2018-08-17T00:48:00.712Z,74.75
2018-08-17T00:48:41.173Z,75.04
2018-08-17T00:49:21.705Z,75.13
2018-08-17T00:50:02.230Z,75.07
2018-08-17T00:50:42.747Z,74.59
2018-08-17T00:51:23.216Z,74.75
2018-08-17T00:52:03.732Z,74.46
2018-08-17T00:52:44.322Z,74.85
2018-08-17T00:53:24.806Z,74.94
2018-08-17T00:54:05.327Z,74.55
2018-08-17T00:54:45.859Z,74.17
2018-08-17T00:55:26.428Z,73.78
2018-08-17T00:56:06.895Z,74.27
2018-08-17T00:56:47.392Z,74.21
2018-08-17T00:57:27.904Z,74.65
2018-08-17T00:58:08.411Z,74.65
2018-08-17T00:58:48.959Z,74.27
2018-08-17T00:59:29.472Z,74.27
2018-08-17T01:00:09.985Z,73.97
2018-08-17T01:00:50.509Z,74.17
2018-08-17T01:01:31.019Z,73.68
2018-08-17T01:02:11.531Z,74.07
2018-08-17T01:02:52.065Z,73.97
2018-08-17T01:03:32.554Z,74.36
2018-08-17T01:04:13.062Z,74.07
2018-08-17T01:04:53.593Z,73.68
2018-08-17T01:05:34.136Z,73.97
2018-08-17T01:06:14.654Z,73.88
2018-08-17T01:06:55.179Z,73.97
2018-08-17T01:07:35.695Z,73.88
2018-08-17T01:08:16.225Z,73.59
2018-08-17T01:08:56.750Z,73.59
2018-08-17T01:09:37.287Z,73.39
2018-08-17T01:10:17.804Z,73.97
2018-08-17T01:10:58.330Z,73.68
2018-08-17T01:11:38.823Z,73.97
2018-08-17T01:12:19.330Z,73.59
2018-08-17T01:12:59.838Z,73.39
2018-08-17T01:13:40.353Z,73.68
2018-08-17T01:14:20.875Z,73.39
2018-08-17T01:15:01.399Z,73.68
2018-08-17T01:15:41.912Z,73.59
2018-08-17T01:16:22.434Z,73.59
2018-08-17T01:17:02.928Z,73.39
2018-08-17T01:17:43.431Z,73.68
2018-08-17T01:18:23.949Z,73.49
2018-08-17T01:19:04.466Z,73.39
2018-08-17T01:19:44.998Z,73.3
2018-08-17T01:20:25.519Z,73.3
2018-08-17T01:21:06.046Z,73.68
2018-08-17T01:21:46.565Z,73.59
2018-08-17T01:22:27.079Z,73.88
2018-08-17T01:23:07.599Z,73.39
2018-08-17T01:23:48.123Z,73.78
2018-08-17T01:24:28.652Z,73.78
2018-08-17T01:25:09.179Z,73.78
2018-08-17T01:25:49.694Z,73.88
2018-08-17T01:26:30.227Z,73.68
2018-08-17T01:27:10.732Z,73.39
2018-08-17T01:27:51.235Z,73.68
2018-08-17T01:28:31.765Z,73.68
2018-08-17T01:29:12.296Z,73.39
2018-08-17T01:29:52.833Z,73.78
2018-08-17T01:30:33.344Z,73.39
2018-08-17T01:31:13.857Z,73.88
2018-08-17T01:31:54.376Z,74.46
2018-08-17T01:32:34.893Z,74.07
2018-08-17T01:33:15.383Z,74.65
2018-08-17T01:33:55.892Z,74.52
2018-08-17T01:34:36.410Z,74.52
2018-08-17T01:35:16.945Z,75.39
2018-08-17T01:35:57.472Z,75.39
2018-08-17T01:36:37.978Z,76.16
2018-08-17T01:37:18.495Z,75.68
2018-08-17T01:37:59.027Z,75.68
2018-08-17T01:38:39.555Z,75.87
2018-08-17T01:39:20.064Z,75.97
2018-08-17T01:40:00.578Z,76.55
2018-08-17T01:40:41.100Z,76.84
2018-08-17T01:41:21.616Z,77.13
2018-08-17T01:42:02.123Z,77.48
2018-08-17T01:42:42.656Z,77.57
2018-08-17T01:43:23.156Z,77.13
2018-08-17T01:44:03.638Z,77.76
2018-08-17T01:44:44.131Z,77.67
2018-08-17T01:45:24.637Z,77.86
2018-08-17T01:46:05.092Z,77.86
2018-08-17T01:46:45.574Z,78.25
2018-08-17T01:47:26.081Z,78.54
2018-08-17T01:48:06.591Z,78.83
2018-08-17T01:48:47.114Z,79.02
2018-08-17T01:49:27.626Z,79.7
2018-08-17T01:50:08.139Z,79.5
2018-08-17T01:50:48.670Z,79.22
2018-08-17T01:51:29.193Z,80.08
2018-08-17T01:52:09.719Z,79.89
2018-08-17T01:52:50.315Z,80.38
2018-08-17T01:53:30.829Z,80.86
2018-08-17T01:54:11.346Z,80.47
2018-08-17T01:54:51.876Z,80.66
2018-08-17T01:55:32.396Z,81.34
2018-08-17T01:56:12.915Z,81.24
2018-08-17T01:56:53.425Z,81.68
2018-08-17T01:57:33.935Z,81.53
2018-08-17T01:58:14.458Z,81.53
2018-08-17T01:58:54.965Z,81.82
2018-08-17T01:59:35.496Z,81.82
2018-08-17T02:00:16.014Z,81.73
2018-08-17T02:00:56.530Z,81.82
2018-08-17T02:01:37.045Z,81.53
2018-08-17T02:02:17.567Z,81.73
2018-08-17T02:02:58.088Z,82.07
2018-08-17T02:03:38.603Z,82.46
2018-08-17T02:04:19.130Z,81.59
2018-08-17T02:04:59.651Z,82.17
2018-08-17T02:05:40.169Z,82.65
2018-08-17T02:06:20.675Z,81.88
2018-08-17T02:07:01.198Z,81.92
2018-08-17T02:07:41.722Z,81.92
2018-08-17T02:08:22.243Z,82.26
2018-08-17T02:09:02.774Z,82.11
2018-08-17T02:09:43.295Z,82.11
2018-08-17T02:10:23.806Z,82.6
2018-08-17T02:11:04.319Z,83.04
2018-08-17T02:11:44.849Z,83.04
2018-08-17T02:12:25.395Z,82.84
2018-08-17T02:13:05.899Z,83.23
2018-08-17T02:13:46.429Z,83.23
2018-08-17T02:14:26.976Z,83.42
2018-08-17T02:15:07.454Z,83.23
2018-08-17T02:15:47.977Z,82.36
2018-08-17T02:16:28.500Z,82.94
2018-08-17T02:17:09.022Z,82.79
2018-08-17T02:17:49.528Z,82.6
2018-08-17T02:18:30.050Z,82.79
2018-08-17T02:20:44.328Z,82.02
2018-08-17T02:21:24.836Z,82.21
2018-08-17T02:22:05.346Z,82.31
2018-08-17T02:22:45.853Z,82.31
2018-08-17T02:23:26.366Z,82.02
2018-08-17T02:24:06.878Z,82.31
2018-08-17T02:24:47.399Z,82.4
2018-08-17T02:25:27.918Z,82.21
2018-08-17T02:26:08.423Z,82.21
2018-08-17T02:26:48.933Z,82.02
2018-08-17T02:27:29.443Z,82.11
2018-08-17T02:28:09.965Z,82.02
2018-08-17T02:28:50.508Z,82.5
2018-08-17T02:29:31.020Z,82.21
2018-08-17T02:30:11.528Z,82.4
2018-08-17T02:30:52.037Z,82.31
2018-08-17T02:31:32.563Z,82.31
2018-08-17T02:32:13.091Z,82.31
2018-08-17T02:32:53.615Z,82.5
2018-08-17T02:33:34.125Z,82.21
2018-08-17T02:34:14.639Z,82.21
2018-08-17T02:34:55.150Z,82.5
2018-08-17T02:35:35.654Z,82.79
2018-08-17T02:36:16.174Z,82.69
2018-08-17T02:36:56.680Z,82.65
2018-08-17T02:37:37.220Z,82.79
2018-08-17T02:38:17.731Z,82.02
2018-08-17T02:38:58.247Z,82.5
2018-08-17T02:39:38.759Z,82.69
2018-08-17T02:40:19.284Z,82.56
2018-08-17T02:40:59.805Z,82.94
2018-08-17T02:41:40.316Z,82.84
2018-08-17T02:42:20.841Z,82.56
2018-08-17T02:43:01.356Z,82.69
2018-08-17T02:43:41.875Z,82.98
2018-08-17T02:44:22.388Z,82.21
2018-08-17T02:45:02.924Z,82.21
2018-08-17T02:45:43.435Z,82.31
2018-08-17T02:46:23.952Z,82.56
2018-08-17T02:47:04.464Z,82.56
2018-08-17T02:47:44.993Z,82.69
2018-08-17T02:48:25.515Z,82.79
2018-08-17T02:49:06.150Z,82.21
2018-08-17T02:49:46.670Z,82.11
2018-08-17T02:50:27.189Z,82.31
2018-08-17T02:51:07.700Z,81.92
2018-08-17T02:51:48.232Z,82.21
2018-08-17T02:52:28.756Z,82.17
2018-08-17T02:53:09.277Z,82.89
2018-08-17T02:53:49.798Z,82.5
2018-08-17T02:54:30.318Z,82.98
2018-08-17T02:55:10.841Z,82.98
2018-08-17T02:55:51.352Z,82.36
2018-08-17T02:56:31.860Z,82.31
2018-08-17T02:57:12.389Z,82.31
2018-08-17T02:57:52.906Z,82.75
2018-08-17T02:58:33.421Z,82.26
2018-08-17T02:59:13.938Z,82.07
2018-08-17T02:59:54.455Z,82.5
2018-08-17T03:00:34.977Z,82.26
2018-08-17T03:01:15.487Z,82.94
2018-08-17T03:01:56.000Z,82.17
2018-08-17T03:02:36.554Z,82.46
2018-08-17T03:03:17.047Z,82.02
2018-08-17T03:03:57.571Z,82.36
2018-08-17T03:04:38.080Z,81.98
2018-08-17T03:05:18.606Z,82.46
2018-08-17T03:05:59.115Z,82.65
2018-08-17T03:06:39.628Z,82.56
2018-08-17T03:07:20.155Z,82.46
2018-08-17T03:08:00.670Z,82.17
2018-08-17T03:08:41.197Z,82.94
2018-08-17T03:09:21.712Z,82.94
2018-08-17T03:10:02.236Z,83.33
2018-08-17T03:10:42.773Z,83.33
2018-08-17T03:11:23.298Z,83.23
2018-08-17T03:12:03.819Z,83.14
2018-08-17T03:12:44.342Z,82.94
2018-08-17T03:13:24.860Z,83.23
2018-08-17T03:14:05.386Z,83.42
2018-08-17T03:14:45.995Z,83.48
2018-08-17T03:15:26.519Z,83.67
2018-08-17T03:16:07.039Z,83.33
2018-08-17T03:16:47.563Z,82.65
2018-08-17T03:17:28.072Z,82.84
2018-08-17T03:18:08.588Z,82.84
2018-08-17T03:18:49.114Z,83.14
2018-08-17T03:19:29.628Z,83.33
2018-08-17T03:20:10.153Z,83.23
2018-08-17T03:20:50.675Z,82.36
2018-08-17T03:21:31.197Z,82.56
2018-08-17T03:22:11.734Z,82.65
2018-08-17T03:22:52.230Z,82.65
2018-08-17T03:23:32.760Z,82.46
2018-08-17T03:24:13.273Z,82.65
2018-08-17T03:24:53.802Z,82.56
2018-08-17T03:25:34.335Z,82.75
2018-08-17T03:26:14.845Z,83.52
2018-08-17T03:26:55.361Z,82.84
2018-08-17T03:27:35.877Z,83.04
2018-08-17T03:28:16.391Z,82.46
2018-08-17T03:28:56.906Z,83.33
2018-08-17T03:29:37.422Z,82.94
2018-08-17T03:30:17.942Z,83.29
2018-08-17T03:30:58.419Z,83.23
2018-08-17T03:31:38.931Z,82.65
2018-08-17T03:32:19.449Z,83
2018-08-17T03:32:59.960Z,82.94
2018-08-17T03:33:40.468Z,82.94
2018-08-17T03:34:20.996Z,83.14
2018-08-17T03:35:01.492Z,82.61
2018-08-17T03:35:41.998Z,83.19
2018-08-17T03:36:22.519Z,83.29
2018-08-17T03:37:03.045Z,82.75
2018-08-17T03:37:43.565Z,83.23
2018-08-17T03:38:24.086Z,83.14
2018-08-17T03:39:04.615Z,83.04
2018-08-17T03:39:45.119Z,82.84
2018-08-17T03:40:25.642Z,82.36
2018-08-17T03:41:06.154Z,82.75
2018-08-17T03:41:46.657Z,82.56
2018-08-17T03:42:27.167Z,82.65
2018-08-17T03:43:07.685Z,82.17
2018-08-17T03:43:48.209Z,82.42
2018-08-17T03:44:28.749Z,82.32
2018-08-17T03:45:09.279Z,82.71
2018-08-17T03:45:49.791Z,82.56
2018-08-17T03:46:30.299Z,82.26
2018-08-17T03:47:10.815Z,81.98
2018-08-17T03:47:51.336Z,81.98
2018-08-17T03:48:31.857Z,82.07
2018-08-17T03:49:12.376Z,82.46
2018-08-17T03:49:52.890Z,82.26
2018-08-17T03:50:33.411Z,82.36
2018-08-17T03:51:13.943Z,82.17
2018-08-17T03:51:54.458Z,82.46
2018-08-17T03:52:34.970Z,82.17
2018-08-17T03:53:15.493Z,82.42
2018-08-17T03:53:56.005Z,81.98
2018-08-17T03:54:36.533Z,82.42
2018-08-17T03:55:17.048Z,82.51
2018-08-17T03:55:57.569Z,82.9
2018-08-17T03:56:38.084Z,83
2018-08-17T03:57:18.597Z,83.09
2018-08-17T03:57:59.108Z,82.9
2018-08-17T03:58:39.610Z,82.32
2018-08-17T03:59:20.132Z,82.81
2018-08-17T04:00:00.667Z,82.42
2018-08-17T04:00:41.186Z,83
2018-08-17T04:01:21.708Z,83
2018-08-17T04:02:02.233Z,83.29
2018-08-17T04:02:42.753Z,83.39
2018-08-17T04:03:23.277Z,83.29
2018-08-17T04:04:03.778Z,83.58
2018-08-17T04:04:44.304Z,82.9
2018-08-17T04:05:24.834Z,83.29
2018-08-17T04:06:05.346Z,83.29
2018-08-17T04:06:45.881Z,83.77
2018-08-17T04:07:26.425Z,83.58
2018-08-17T04:08:06.937Z,83.48
2018-08-17T04:08:47.449Z,82.9
2018-08-17T04:09:27.977Z,83.96
2018-08-17T04:10:08.498Z,83.48
2018-08-17T04:10:49.020Z,83.29
2018-08-17T04:11:29.534Z,82.9
2018-08-17T04:12:10.043Z,82.61
2018-08-17T04:12:50.575Z,83.19
2018-08-17T04:13:31.094Z,82.9
2018-08-17T04:14:11.611Z,83.48
2018-08-17T04:14:52.131Z,83.19
2018-08-17T04:15:32.671Z,83.48
2018-08-17T04:16:13.177Z,82.9
2018-08-17T04:16:53.701Z,83.77
2018-08-17T04:17:34.232Z,83.67
2018-08-17T04:18:14.751Z,82.71
2018-08-17T04:18:55.276Z,83
2018-08-17T04:19:35.796Z,83.58
2018-08-17T04:20:16.305Z,82.81
2018-08-17T04:20:56.824Z,83.39
2018-08-17T04:21:37.353Z,82.32
2018-08-17T04:22:17.919Z,82.71
2018-08-17T04:22:58.376Z,82.71
2018-08-17T04:23:38.898Z,82.61
2018-08-17T04:24:19.431Z,82.42
2018-08-17T04:24:59.926Z,82.42
2018-08-17T04:25:40.456Z,82.32
2018-08-17T04:26:20.969Z,82.03
2018-08-17T04:27:01.522Z,81.93
2018-08-17T04:27:42.070Z,82.23
2018-08-17T04:28:22.589Z,82.13
2018-08-17T04:29:03.119Z,81.65
2018-08-17T04:29:43.637Z,81.65
2018-08-17T04:30:24.157Z,81.65
2018-08-17T04:31:04.682Z,81.65
2018-08-17T04:31:45.194Z,81.74
2018-08-17T04:32:25.711Z,81.65
2018-08-17T04:33:06.220Z,82.32
2018-08-17T04:33:46.739Z,82.03
2018-08-17T04:34:27.283Z,81.93
2018-08-17T04:35:07.830Z,82.23
2018-08-17T04:35:48.336Z,82.23
2018-08-17T04:36:28.852Z,82.23
2018-08-17T04:37:09.374Z,82.42
2018-08-17T04:37:49.885Z,81.93
2018-08-17T04:38:30.383Z,82.13
2018-08-17T04:39:10.905Z,81.55
2018-08-17T04:39:51.426Z,82.23
2018-08-17T04:40:31.940Z,81.65
2018-08-17T04:41:12.472Z,81.84
2018-08-17T04:41:52.991Z,81.84
2018-08-17T04:42:33.584Z,81.88
2018-08-17T04:43:14.051Z,81.01
2018-08-17T04:43:54.562Z,81.01
2018-08-17T04:44:35.096Z,81.01
2018-08-17T04:45:15.614Z,80.62
2018-08-17T04:45:56.125Z,80.91
2018-08-17T04:46:36.645Z,81.3
2018-08-17T04:47:17.154Z,81.3
2018-08-17T04:47:57.653Z,81.59
2018-08-17T04:48:38.164Z,81.65
2018-08-17T04:49:18.761Z,81.74
2018-08-17T04:49:59.193Z,81.74
2018-08-17T04:50:39.712Z,81.65
2018-08-17T04:51:20.239Z,81.93
2018-08-17T04:52:00.757Z,82.13
2018-08-17T04:52:41.272Z,82.03
2018-08-17T04:53:21.802Z,81.65
2018-08-17T04:54:02.349Z,81.84
2018-08-17T04:54:42.824Z,81.59
2018-08-17T04:55:23.337Z,81.59
2018-08-17T04:56:03.906Z,80.72
2018-08-17T04:56:44.376Z,80.82
2018-08-17T04:57:24.909Z,80.33
2018-08-17T04:58:05.436Z,80.39
2018-08-17T04:58:46.279Z,80.97
2018-08-17T04:59:26.746Z,81.07
2018-08-17T05:00:07.231Z,80.1
2018-08-17T05:00:47.746Z,80.49
2018-08-17T05:01:28.276Z,80.1
2018-08-17T05:02:08.807Z,79.91
2018-08-17T05:02:49.309Z,80.1
2018-08-17T05:03:29.893Z,79.85
2018-08-17T05:04:10.356Z,80.24
2018-08-17T05:04:50.832Z,80.05
2018-08-17T05:05:31.367Z,79.75
2018-08-17T05:06:11.880Z,79.37
2018-08-17T05:06:52.415Z,79.08
2018-08-17T05:07:33.275Z,79.95
2018-08-17T05:08:13.764Z,80.05
2018-08-17T05:08:54.324Z,80.05
2018-08-17T05:09:34.797Z,79.17
2018-08-17T05:10:15.518Z,79.37
2018-08-17T05:10:56.004Z,79.37
2018-08-17T05:11:36.511Z,79.37
2018-08-17T05:12:16.975Z,79.27
2018-08-17T05:12:57.511Z,79.66
2018-08-17T05:13:37.961Z,79.75
2018-08-17T05:14:18.502Z,79.27
2018-08-17T05:14:58.967Z,79.56
2018-08-17T05:15:39.459Z,79.27
2018-08-17T05:16:19.967Z,78.89
2018-08-17T05:17:00.448Z,79.66
2018-08-17T05:17:40.956Z,79.37
2018-08-17T05:18:21.470Z,79.56
2018-08-17T05:19:01.970Z,79.22
2018-08-17T05:19:42.492Z,79.17
2018-08-17T05:20:23.021Z,79.12
2018-08-17T05:21:03.545Z,78.79
2018-08-17T05:21:44.092Z,79.41
2018-08-17T05:22:24.572Z,79.12
2018-08-17T05:23:05.061Z,79.41
2018-08-17T05:23:45.548Z,79.08
2018-08-17T05:24:26.034Z,79.22
2018-08-17T05:25:06.566Z,79.7
2018-08-17T05:25:47.033Z,79.66
2018-08-17T05:26:27.563Z,79.41
2018-08-17T05:27:08.633Z,78.79
2018-08-17T05:27:48.591Z,79.22
2018-08-17T05:28:29.100Z,79.41
2018-08-17T05:30:42.340Z,78.64
2018-08-17T05:31:23.916Z,79.22
2018-08-17T05:32:03.572Z,79.31
2018-08-17T05:32:45.150Z,79.22
2018-08-17T05:33:25.029Z,79.22
2018-08-17T05:34:05.538Z,79.22
2018-08-17T05:34:46.077Z,78.92
2018-08-17T05:35:26.567Z,78.92
2018-08-17T05:36:07.128Z,78.83
2018-08-17T05:36:47.627Z,78.92
2018-08-17T05:37:28.133Z,79.22
2018-08-17T05:38:08.678Z,78.73
2018-08-17T05:38:49.180Z,79.5
2018-08-17T05:39:29.642Z,79.22
2018-08-17T05:40:10.192Z,79.31
2018-08-17T05:40:50.823Z,79.31
2018-08-17T05:41:31.358Z,80.08
2018-08-17T05:42:11.886Z,80.18
2018-08-17T05:42:52.382Z,80.86
2018-08-17T05:43:32.875Z,80.08
2018-08-17T05:44:13.403Z,80.86
2018-08-17T05:44:53.971Z,80.66
2018-08-17T05:45:34.393Z,80.57
2018-08-17T05:46:15.173Z,80.38
2018-08-17T05:46:55.664Z,80.18
2018-08-17T05:47:36.436Z,79.8
2018-08-17T05:48:16.947Z,79.89
2018-08-17T05:48:57.461Z,79.41
2018-08-17T05:49:37.983Z,79.45
2018-08-17T05:50:18.452Z,79.83
2018-08-17T05:50:58.948Z,79.16
2018-08-17T05:51:40.099Z,79.25
2018-08-17T05:52:20.521Z,78.96
2018-08-17T05:53:01.037Z,79.54
2018-08-17T05:53:41.638Z,78.96
2018-08-17T05:54:22.162Z,79.06
2018-08-17T05:55:02.683Z,79.45
2018-08-17T05:55:43.180Z,78.77
2018-08-17T05:56:23.677Z,79.25
2018-08-17T05:57:04.176Z,79.25
2018-08-17T05:57:44.701Z,79.06
2018-08-17T05:58:25.254Z,79.25
2018-08-17T05:59:05.766Z,79.16
2018-08-17T05:59:46.255Z,79.35
2018-08-17T06:00:26.799Z,79.35
2018-08-17T06:01:07.247Z,78.96
2018-08-17T06:01:47.791Z,79.06
2018-08-17T06:02:28.270Z,79.06
2018-08-17T06:03:08.729Z,79.64
2018-08-17T06:03:49.231Z,80.12
2018-08-17T06:04:29.722Z,79.93
2018-08-17T06:05:10.233Z,79.89
2018-08-17T06:05:50.727Z,80.18
2018-08-17T06:06:31.224Z,80.22
2018-08-17T06:07:11.750Z,80.38
2018-08-17T06:07:52.268Z,80.18
2018-08-17T06:08:32.795Z,80.41
2018-08-17T06:09:13.332Z,79.83
2018-08-17T06:09:53.859Z,80.03
2018-08-17T06:10:34.367Z,79.93
2018-08-17T06:11:15.061Z,79.93
2018-08-17T06:11:55.432Z,79.83
2018-08-17T06:12:35.926Z,80.22
2018-08-17T06:13:16.433Z,80.22
2018-08-17T06:13:56.955Z,80.41
2018-08-17T06:14:37.469Z,80.51
2018-08-17T06:15:18.012Z,79.93
2018-08-17T06:15:58.480Z,80.03
2018-08-17T06:16:39.011Z,80.22
2018-08-17T06:17:19.554Z,80.22
2018-08-17T06:18:00.025Z,80.22
2018-08-17T06:18:40.552Z,80.41
2018-08-17T06:19:21.131Z,80.32
2018-08-17T06:20:01.528Z,80.22
2018-08-17T06:20:42.025Z,80.07
2018-08-17T06:21:22.629Z,80.46
2018-08-17T06:22:03.091Z,80.26
2018-08-17T06:22:43.554Z,79.97
2018-08-17T06:23:24.058Z,80.12
2018-08-17T06:24:04.548Z,80.26
2018-08-17T06:24:45.100Z,80.07
2018-08-17T06:25:25.596Z,80.16
2018-08-17T06:26:06.034Z,80.07
2018-08-17T06:26:46.533Z,79.78
2018-08-17T06:27:27.063Z,79.29
2018-08-17T06:28:07.528Z,79.39
2018-08-17T06:28:47.996Z,79
2018-08-17T06:29:28.501Z,79
2018-08-17T06:30:09.018Z,79.2
2018-08-17T06:30:49.509Z,79.29
2018-08-17T06:31:29.985Z,79.39
2018-08-17T06:32:10.464Z,79.39
2018-08-17T06:32:50.979Z,78.61
2018-08-17T06:33:31.506Z,78.81
2018-08-17T06:34:12.010Z,78.71
2018-08-17T06:34:52.476Z,78.52
2018-08-17T06:35:32.955Z,78.81
2018-08-17T06:36:13.572Z,77.84
2018-08-17T06:36:53.959Z,77.84
2018-08-17T06:37:34.510Z,77.84
2018-08-17T06:38:14.985Z,77.65
2018-08-17T06:38:55.590Z,78.03
2018-08-17T06:39:36.065Z,77.17
2018-08-17T06:40:16.539Z,77.36
2018-08-17T06:40:57.036Z,77.2
2018-08-17T06:41:37.544Z,76.62
2018-08-17T06:42:18.039Z,76.72
2018-08-17T06:42:58.529Z,76.72
2018-08-17T06:43:39.019Z,76.53
2018-08-17T06:44:19.501Z,75.75
2018-08-17T06:45:00.008Z,75.89
2018-08-17T06:45:40.741Z,75.27
2018-08-17T06:46:21.233Z,75.31
2018-08-17T06:47:01.688Z,75.02
2018-08-17T06:47:42.209Z,75.21
2018-08-17T06:48:22.745Z,74.53
2018-08-17T06:49:03.259Z,74.24
2018-08-17T06:49:43.954Z,74.34
2018-08-17T06:50:24.481Z,74.34
2018-08-17T06:51:05.027Z,74.43
2018-08-17T06:51:45.432Z,74.82
2018-08-17T06:52:25.989Z,74.24
2018-08-17T06:53:06.450Z,74.43
2018-08-17T06:53:46.920Z,73.6
2018-08-17T06:54:27.489Z,73.6
2018-08-17T06:55:07.961Z,73.21
2018-08-17T06:55:48.441Z,72.47
2018-08-17T06:56:28.921Z,72.47
2018-08-17T06:57:09.492Z,72.18
2018-08-17T06:57:49.908Z,71.5
2018-08-17T06:58:30.406Z,71.8
2018-08-17T06:59:10.928Z,71.5
2018-08-17T06:59:51.378Z,71.7
2018-08-17T07:00:31.938Z,71.7
2018-08-17T07:01:12.491Z,71.6
2018-08-17T07:01:53.017Z,71.02
2018-08-17T07:02:33.508Z,71.06
2018-08-17T07:03:14.025Z,71.02
2018-08-17T07:03:54.525Z,70.57
2018-08-17T07:04:34.996Z,70.37
2018-08-17T07:05:15.477Z,69.99
2018-08-17T07:05:55.994Z,69.44
2018-08-17T07:06:36.484Z,69.15
2018-08-17T07:07:17.008Z,68.76
2018-08-17T07:07:57.501Z,69.34
2018-08-17T07:08:38.066Z,69.44
2018-08-17T07:09:18.694Z,68.66
2018-08-17T07:09:59.020Z,68.86
2018-08-17T07:10:39.568Z,68.18
2018-08-17T07:11:20.211Z,67.5
2018-08-17T07:12:00.696Z,67.31
2018-08-17T07:12:41.240Z,67.4
2018-08-17T07:13:21.791Z,67.5
2018-08-17T07:14:02.238Z,67.11
2018-08-17T07:14:42.751Z,67.24
2018-08-17T07:15:23.277Z,67.05
2018-08-17T07:16:03.720Z,67.05
2018-08-17T07:16:44.298Z,67.05
2018-08-17T07:17:24.746Z,66.47
2018-08-17T07:18:05.237Z,66.08
2018-08-17T07:18:45.857Z,65.98
2018-08-17T07:19:26.333Z,65.89
2018-08-17T07:20:06.795Z,65.89
2018-08-17T07:20:47.374Z,66.08
2018-08-17T07:21:27.936Z,66.37
2018-08-17T07:22:08.372Z,65.98
2018-08-17T07:22:48.872Z,65.89
2018-08-17T07:23:29.348Z,65.79
2018-08-17T07:24:09.866Z,65.53
2018-08-17T07:24:50.373Z,65.69
2018-08-17T07:25:30.839Z,65.33
2018-08-17T07:26:11.375Z,65.2
2018-08-17T07:26:51.868Z,64.75
2018-08-17T07:27:32.367Z,65.14
2018-08-17T07:28:13.036Z,64.95
2018-08-17T07:28:53.375Z,64.95
2018-08-17T07:29:33.885Z,65.24
2018-08-17T07:30:14.401Z,65.05
2018-08-17T07:30:54.892Z,64.85
2018-08-17T07:31:35.409Z,64.95
2018-08-17T07:32:15.949Z,64.75
2018-08-17T07:32:56.424Z,64.75
2018-08-17T07:33:36.922Z,65.08
2018-08-17T07:34:17.417Z,64.4
2018-08-17T07:34:57.924Z,64.01
2018-08-17T07:35:38.420Z,63.81
2018-08-17T07:36:18.908Z,64.01
2018-08-17T07:36:59.404Z,63.62
2018-08-17T07:37:39.869Z,63.71
2018-08-17T07:38:20.356Z,63.81
2018-08-17T07:39:00.883Z,63.32
2018-08-17T07:39:41.427Z,63.62
2018-08-17T07:40:21.934Z,63.23
2018-08-17T07:41:02.416Z,63.42
2018-08-17T07:41:42.943Z,63.23
2018-08-17T07:42:23.364Z,62.77
2018-08-17T07:43:03.830Z,62.65
2018-08-17T07:43:44.339Z,62.84
2018-08-17T07:44:24.839Z,62.65
2018-08-17T07:45:05.396Z,62.97
2018-08-17T07:45:45.818Z,62.87
2018-08-17T07:46:26.320Z,63.07
2018-08-17T07:47:06.901Z,62.97
2018-08-17T07:47:47.343Z,63.23
2018-08-17T07:48:27.744Z,63.32
2018-08-17T07:49:08.333Z,63.36
2018-08-17T07:49:48.878Z,63.42
2018-08-17T07:50:29.332Z,62.97
2018-08-17T07:51:10.032Z,63.17
2018-08-17T07:51:50.801Z,63.36
2018-08-17T07:52:31.339Z,62.68
2018-08-17T07:53:11.809Z,63.07
2018-08-17T07:53:52.389Z,62.58
2018-08-17T07:54:32.871Z,63.07
2018-08-17T07:55:13.423Z,62.77
2018-08-17T07:57:11.558Z,63.45
2018-08-17T07:57:52.095Z,63.36
2018-08-17T07:58:32.728Z,63.07
2018-08-17T07:59:13.452Z,62.77
2018-08-17T07:59:54.203Z,62.48
2018-08-17T08:00:34.713Z,62.68
2018-08-17T08:01:15.233Z,62.97
2018-08-17T08:01:55.799Z,62.87
2018-08-17T08:02:36.342Z,62.68
2018-08-17T08:03:16.876Z,62.68
2018-08-17T08:03:57.363Z,62.48
2018-08-17T08:04:37.829Z,62.77
2018-08-17T08:05:18.365Z,62.1
2018-08-17T08:05:58.867Z,62.38
2018-08-17T08:06:39.478Z,62.38
2018-08-17T08:07:20.060Z,62.29
2018-08-17T08:08:00.477Z,62.48
2018-08-17T08:08:40.975Z,62.29
2018-08-17T08:09:21.503Z,61.8
2018-08-17T08:10:01.982Z,62
2018-08-17T08:10:42.493Z,61.51
2018-08-17T08:11:23.136Z,62.38
2018-08-17T08:12:03.622Z,62.58
2018-08-17T08:12:44.296Z,62.19
2018-08-17T08:13:24.775Z,62.68
2018-08-17T08:14:05.403Z,62.48
2018-08-17T08:14:45.930Z,62.48
2018-08-17T08:15:26.411Z,62.29
2018-08-17T08:16:06.873Z,63.07
2018-08-17T08:16:47.366Z,62.38
2018-08-17T08:17:27.930Z,62.38
2018-08-17T08:18:08.416Z,62.29
2018-08-17T08:18:48.897Z,62.58
2018-08-17T08:19:30.262Z,62.48
2018-08-17T08:20:10.932Z,61.61
2018-08-17T08:20:51.380Z,61.51
2018-08-17T08:21:31.910Z,61.61
2018-08-17T08:22:12.455Z,62
2018-08-17T08:22:52.903Z,62.29
2018-08-17T08:23:33.418Z,61.8
2018-08-17T08:24:13.928Z,62.29
2018-08-17T08:24:54.552Z,62.26
2018-08-17T08:25:34.927Z,62.84
2018-08-17T08:26:15.450Z,62.65
2018-08-17T08:26:55.898Z,62.45
2018-08-17T08:27:36.414Z,62.74
2018-08-17T08:28:16.922Z,62.94
2018-08-17T08:28:57.432Z,62.45
2018-08-17T08:29:37.932Z,62.45
2018-08-17T08:30:18.448Z,63.04
2018-08-17T08:30:58.944Z,62.65
2018-08-17T08:31:39.452Z,62.74
2018-08-17T08:32:19.970Z,62.65
2018-08-17T08:33:00.421Z,62.55
2018-08-17T08:33:40.925Z,62.65
2018-08-17T08:34:21.452Z,62.87
2018-08-17T08:35:01.898Z,62.29
2018-08-17T08:35:42.415Z,62.29
2018-08-17T08:36:22.889Z,62.35
2018-08-17T08:37:03.391Z,62.58
2018-08-17T08:37:43.969Z,62.48
2018-08-17T08:38:24.423Z,62.38
2018-08-17T08:39:04.940Z,62.87
2018-08-17T08:39:45.504Z,62.48
2018-08-17T08:40:25.944Z,62.97
2018-08-17T08:41:06.469Z,62.77
2018-08-17T08:41:46.975Z,62.58
2018-08-17T08:42:27.431Z,62.77
2018-08-17T08:43:07.884Z,63.07
2018-08-17T08:43:48.432Z,62.68
2018-08-17T08:44:28.899Z,62.68
2018-08-17T08:45:09.417Z,62.97
2018-08-17T08:45:49.967Z,62.48
2018-08-17T08:46:30.407Z,62.29
2018-08-17T08:47:10.974Z,62.58
2018-08-17T08:47:51.551Z,62.29
2018-08-17T08:48:32.267Z,62.58
2018-08-17T08:49:13.201Z,62.77
2018-08-17T08:49:53.565Z,62.77